createdAt,value
2023-02-26T00:02:22.146Z,102388.72
2023-02-26T00:05:08.598Z,102387.00
2023-02-26T00:07:53.834Z,102389.75
2023-02-26T00:10:39.258Z,102389.81
2023-02-26T00:13:25.422Z,102391.59
2023-02-26T00:16:25.967Z,102396.03
2023-02-26T00:19:12.656Z,102392.59
2023-02-26T00:21:58.679Z,102396.91
2023-02-26T00:24:44.065Z,102401.41
2023-02-26T00:27:29.541Z,102403.19
2023-02-26T00:30:15.373Z,102407.47
2023-02-26T00:33:01.884Z,102406.53
2023-02-26T00:35:55.860Z,102404.66
2023-02-26T00:38:45.085Z,102399.44
2023-02-26T00:41:31.283Z,102403.88
2023-02-26T00:44:17.379Z,102405.63
2023-02-26T00:47:40.765Z,102407.41
2023-02-26T00:50:27.371Z,102402.09
2023-02-26T00:53:20.367Z,102404.75
2023-02-26T00:56:05.793Z,102407.25
2023-02-26T00:58:51.045Z,102409.78
2023-02-26T01:01:36.620Z,102404.53
2023-02-26T01:04:23.733Z,102406.97
2023-02-26T01:07:10.782Z,102402.69
2023-02-26T01:09:56.791Z,102410.44
2023-02-26T01:12:43.229Z,102415.56
2023-02-26T01:15:29.002Z,102413.69
2023-02-26T01:18:19.567Z,102411.03
2023-02-26T01:21:10.268Z,102420.22
2023-02-26T01:23:55.729Z,102430.19
2023-02-26T01:26:41.509Z,102429.91
2023-02-26T01:29:27.541Z,102424.13
2023-02-26T01:32:21.111Z,102428.56
2023-02-26T01:35:41.076Z,102419.25
2023-02-26T01:38:54.097Z,102420.41
2023-02-26T01:41:46.958Z,102423.34
2023-02-26T01:44:43.134Z,102422.69
2023-02-26T01:47:39.625Z,102423.13
2023-02-26T01:50:30.076Z,102427.25
2023-02-26T01:53:19.853Z,102429.56
2023-02-26T01:56:14.138Z,102429.34
2023-02-26T01:59:00.910Z,102429.97
2023-02-26T02:01:46.685Z,102428.16
2023-02-26T02:04:33.619Z,102436.63
2023-02-26T02:07:20.250Z,102439.84
2023-02-26T02:10:06.218Z,102436.28
2023-02-26T02:12:56.508Z,102438.97
2023-02-26T02:15:57.064Z,102439.28
2023-02-26T02:19:20.034Z,102434.50
2023-02-26T02:22:30.396Z,102437.16
2023-02-26T02:25:31.199Z,102444.88
2023-02-26T02:28:55.407Z,102447.69
2023-02-26T02:31:50.366Z,102443.59
2023-02-26T02:34:53.440Z,102453.28
2023-02-26T02:37:48.729Z,102454.38
2023-02-26T02:40:41.057Z,102452.94
2023-02-26T02:43:29.975Z,102449.75
2023-02-26T02:46:22.066Z,102453.59
2023-02-26T02:49:15.655Z,102457.38
2023-02-26T02:52:08.500Z,102456.66
2023-02-26T02:54:57.823Z,102456.81
2023-02-26T02:58:06.113Z,102464.72
2023-02-26T03:00:56.554Z,102472.63
2023-02-26T03:03:51.086Z,102474.97
2023-02-26T03:06:36.834Z,102459.91
2023-02-26T03:09:22.306Z,102457.16
2023-02-26T03:12:07.608Z,102466.53
2023-02-26T03:14:53.455Z,102477.44
2023-02-26T03:17:59.822Z,102467.88
2023-02-26T03:21:03.171Z,102463.34
2023-02-26T03:24:11.261Z,102463.25
2023-02-26T03:27:09.821Z,102465.94
2023-02-26T03:30:17.462Z,102466.88
2023-02-26T03:33:25.319Z,102469.47
2023-02-26T03:36:19.973Z,102474.56
2023-02-26T03:39:24.106Z,102473.38
2023-02-26T03:42:24.492Z,102477.91
2023-02-26T03:45:20.588Z,102481.38
2023-02-26T03:48:10.110Z,102491.72
2023-02-26T03:51:01.506Z,102479.84
2023-02-26T03:54:11.042Z,102474.19
2023-02-26T03:56:59.953Z,102483.22
2023-02-26T04:00:15.593Z,102479.72
2023-02-26T04:03:09.964Z,102485.88
2023-02-26T04:05:56.465Z,102480.94
2023-02-26T04:08:43.624Z,102487.22
2023-02-26T04:11:30.567Z,102495.22
2023-02-26T04:14:15.911Z,102495.38
2023-02-26T04:17:02.214Z,102494.72
2023-02-26T04:19:47.972Z,102495.75
2023-02-26T04:22:34.156Z,102508.03
2023-02-26T04:25:20.327Z,102509.88
2023-02-26T04:28:05.966Z,102516.81
2023-02-26T04:30:52.435Z,102514.16
2023-02-26T04:33:38.106Z,102519.09
2023-02-26T04:36:24.054Z,102519.91
2023-02-26T04:39:10.818Z,102519.75
2023-02-26T04:41:56.246Z,102517.91
2023-02-26T04:44:41.443Z,102518.78
2023-02-26T04:47:26.737Z,102522.34
2023-02-26T04:50:12.212Z,102514.56
2023-02-26T04:52:57.636Z,102513.03
2023-02-26T04:55:44.125Z,102519.16
2023-02-26T04:58:29.878Z,102531.38
2023-02-26T05:01:21.793Z,102525.47
2023-02-26T05:04:07.366Z,102529.81
2023-02-26T05:06:53.502Z,102530.66
2023-02-26T05:09:39.774Z,102537.50
2023-02-26T05:12:25.316Z,102539.22
2023-02-26T05:15:11.697Z,102543.50
2023-02-26T05:17:57.261Z,102546.09
2023-02-26T05:20:42.730Z,102554.81
2023-02-26T05:23:28.907Z,102553.78
2023-02-26T05:26:14.301Z,102556.53
2023-02-26T05:29:00.129Z,102555.69
2023-02-26T05:31:45.498Z,102555.94
2023-02-26T05:34:31.348Z,102550.69
2023-02-26T05:37:16.944Z,102548.19
2023-02-26T05:40:02.982Z,102550.75
2023-02-26T05:42:48.356Z,102552.53
2023-02-26T05:45:33.583Z,102560.34
2023-02-26T05:48:19.528Z,102559.56
2023-02-26T05:51:04.914Z,102567.31
2023-02-26T05:53:50.259Z,102562.06
2023-02-26T05:56:36.369Z,102564.56
2023-02-26T05:59:22.297Z,102583.50
2023-02-26T06:02:07.803Z,102581.88
2023-02-26T06:04:53.530Z,102587.22
2023-02-26T06:07:39.080Z,102589.88
2023-02-26T06:10:24.768Z,102592.53
2023-02-26T06:13:10.308Z,102589.16
2023-02-26T06:15:55.808Z,102587.34
2023-02-26T06:18:41.251Z,102581.31
2023-02-26T06:21:26.756Z,102583.81
2023-02-26T06:24:12.260Z,102590.66
2023-02-26T06:26:57.543Z,102587.22
2023-02-26T06:29:43.243Z,102594.91
2023-02-26T06:32:30.677Z,102596.56
2023-02-26T06:35:16.533Z,102603.59
2023-02-26T06:38:02.264Z,102596.56
2023-02-26T06:40:48.578Z,102609.69
2023-02-26T06:43:34.146Z,102602.88
2023-02-26T06:46:19.728Z,102596.97
2023-02-26T06:49:05.161Z,102608.34
2023-02-26T06:51:51.454Z,102602.31
2023-02-26T06:54:36.990Z,102606.59
2023-02-26T06:57:22.231Z,102613.63
2023-02-26T07:00:09.412Z,102615.41
2023-02-26T07:02:54.838Z,102611.94
2023-02-26T07:05:40.803Z,102619.78
2023-02-26T07:08:26.433Z,102625.81
2023-02-26T07:11:11.873Z,102635.22
2023-02-26T07:13:57.512Z,102644.75
2023-02-26T07:16:42.795Z,102641.34
2023-02-26T07:19:28.274Z,102649.03
2023-02-26T07:22:15.093Z,102649.91
2023-02-26T07:25:00.686Z,102662.78
2023-02-26T07:27:46.287Z,102671.38
2023-02-26T07:30:31.977Z,102675.78
2023-02-26T07:33:17.745Z,102682.75
2023-02-26T07:36:03.472Z,102682.75
2023-02-26T07:38:48.806Z,102681.16
2023-02-26T07:41:34.185Z,102688.09
2023-02-26T07:44:19.452Z,102689.72
2023-02-26T07:47:04.953Z,102687.28
2023-02-26T07:49:50.574Z,102695.13
2023-02-26T07:52:35.829Z,102690.75
2023-02-26T07:55:21.920Z,102703.03
2023-02-26T07:58:07.380Z,102709.94
2023-02-26T08:00:52.901Z,102716.06
2023-02-26T08:03:38.482Z,102716.97
2023-02-26T08:06:24.523Z,102723.19
2023-02-26T08:09:10.280Z,102711.03
2023-02-26T08:11:55.648Z,102714.47
2023-02-26T08:14:43.764Z,102718.06
2023-02-26T08:17:29.344Z,102726.00
2023-02-26T08:20:15.393Z,102726.00
2023-02-26T08:23:01.295Z,102743.63
2023-02-26T08:25:47.014Z,102753.41
2023-02-26T08:28:33.489Z,102755.34
2023-02-26T08:31:19.078Z,102757.13
2023-02-26T08:34:04.623Z,102761.75
2023-02-26T08:36:50.409Z,102758.25
2023-02-26T08:39:38.486Z,102764.09
2023-02-26T08:42:23.719Z,102771.03
2023-02-26T08:45:09.831Z,102771.13
2023-02-26T08:47:57.175Z,102777.22
2023-02-26T08:50:42.814Z,102774.63
2023-02-26T08:53:28.082Z,102779.03
2023-02-26T08:56:14.268Z,102779.22
2023-02-26T08:58:59.736Z,102783.81
2023-02-26T09:01:45.312Z,102786.50
2023-02-26T09:04:31.320Z,102785.81
2023-02-26T09:07:16.760Z,102780.75
2023-02-26T09:10:02.318Z,102784.28
2023-02-26T09:12:47.781Z,102780.06
2023-02-26T09:15:33.540Z,102786.06
2023-02-26T09:18:19.097Z,102800.78
2023-02-26T09:21:04.931Z,102797.31
2023-02-26T09:23:50.401Z,102798.38
2023-02-26T09:26:36.006Z,102802.06
2023-02-26T09:29:21.396Z,102785.28
2023-02-26T09:32:08.734Z,102796.22
2023-02-26T09:34:54.062Z,102801.38
2023-02-26T09:37:40.268Z,102815.34
2023-02-26T09:40:48.815Z,102820.66
2023-02-26T09:43:43.308Z,102831.63
2023-02-26T09:46:41.151Z,102843.28
2023-02-26T09:49:41.598Z,102834.47
2023-02-26T09:52:45.693Z,102837.94
2023-02-26T09:55:43.731Z,102833.47
2023-02-26T09:58:40.293Z,102835.34
2023-02-26T10:01:35.324Z,102843.28
2023-02-26T10:04:36.985Z,102844.47
2023-02-26T10:07:34.815Z,102848.31
2023-02-26T10:10:25.910Z,102850.50
2023-02-26T10:13:23.982Z,102864.09
2023-02-26T10:16:14.927Z,102869.75
2023-02-26T10:19:08.373Z,102875.28
2023-02-26T10:22:17.812Z,102881.44
2023-02-26T10:25:14.470Z,102885.81
2023-02-26T10:28:28.566Z,102894.72
2023-02-26T10:31:32.977Z,102899.41
2023-02-26T10:34:51.802Z,102907.31
2023-02-26T10:37:57.440Z,102906.41
2023-02-26T10:40:50.894Z,102898.56
2023-02-26T10:43:49.101Z,102906.06
2023-02-26T10:47:09.334Z,102907.59
2023-02-26T10:49:59.316Z,102903.81
2023-02-26T10:52:46.049Z,102899.13
2023-02-26T10:55:54.291Z,102903.03
2023-02-26T10:58:40.334Z,102905.50
2023-02-26T11:01:29.811Z,102905.06
2023-02-26T11:04:18.357Z,102915.19
2023-02-26T11:07:06.303Z,102909.13
2023-02-26T11:09:52.429Z,102919.84
2023-02-26T11:12:37.863Z,102917.59
2023-02-26T11:15:26.730Z,102921.91
2023-02-26T11:18:17.171Z,102927.63
2023-02-26T11:21:06.194Z,102919.03
2023-02-26T11:24:29.018Z,102921.50
2023-02-26T11:27:19.726Z,102914.28
2023-02-26T11:30:18.727Z,102917.25
2023-02-26T11:33:15.799Z,102918.53
2023-02-26T11:36:06.201Z,102920.59
2023-02-26T11:39:08.392Z,102921.56
2023-02-26T11:41:57.405Z,102921.16
2023-02-26T11:44:47.799Z,102918.63
2023-02-26T11:47:34.440Z,102923.00
2023-02-26T11:50:26.172Z,102919.97
2023-02-26T11:53:25.752Z,102917.50
2023-02-26T11:56:20.359Z,102915.53
2023-02-26T11:59:18.387Z,102916.13
2023-02-26T12:02:12.677Z,102921.16
2023-02-26T12:05:02.835Z,102920.66
2023-02-26T12:07:48.950Z,102928.06
2023-02-26T12:10:47.635Z,102926.69
2023-02-26T12:14:28.775Z,102922.94
2023-02-26T12:17:26.401Z,102913.28
2023-02-26T12:20:33.234Z,102915.59
2023-02-26T12:23:26.138Z,102924.75
2023-02-26T12:27:02.590Z,102922.88
2023-02-26T12:30:21.069Z,102923.81
2023-02-26T12:33:44.269Z,102923.53
2023-02-26T12:37:05.269Z,102926.41
2023-02-26T12:39:53.965Z,102928.25
2023-02-26T12:42:59.568Z,102925.72
2023-02-26T12:45:54.140Z,102923.75
2023-02-26T12:48:57.783Z,102916.19
2023-02-26T12:52:20.139Z,102910.50
2023-02-26T12:55:08.337Z,102907.31
2023-02-26T12:58:11.956Z,102909.78
2023-02-26T13:01:25.327Z,102909.56
2023-02-26T13:04:33.702Z,102910.38
2023-02-26T13:07:22.448Z,102913.38
2023-02-26T13:10:38.706Z,102909.75
2023-02-26T13:13:43.477Z,102910.69
2023-02-26T13:16:40.418Z,102907.59
2023-02-26T13:19:26.102Z,102915.78
2023-02-26T13:22:28.929Z,102921.34
2023-02-26T13:25:38.697Z,102918.31
2023-02-26T13:28:42.614Z,102916.91
2023-02-26T13:31:34.389Z,102910.22
2023-02-26T13:34:37.120Z,102904.19
2023-02-26T13:37:45.816Z,102917.47
2023-02-26T13:40:53.242Z,102901.19
2023-02-26T13:43:48.726Z,102904.66
2023-02-26T13:46:52.585Z,102907.69
2023-02-26T13:50:11.664Z,102912.13
2023-02-26T13:53:05.039Z,102910.44
2023-02-26T13:55:53.695Z,102915.28
2023-02-26T13:58:44.195Z,102910.84
2023-02-26T14:01:35.753Z,102916.19
2023-02-26T14:04:24.356Z,102914.84
2023-02-26T14:07:17.149Z,102909.75
2023-02-26T14:10:14.808Z,102914.03
2023-02-26T14:13:19.708Z,102920.09
2023-02-26T14:16:21.374Z,102910.94
2023-02-26T14:19:27.032Z,102921.16
2023-02-26T14:22:31.023Z,102929.34
2023-02-26T14:25:38.820Z,102921.47
2023-02-26T14:28:27.936Z,102925.44
2023-02-26T14:31:22.551Z,102918.69
2023-02-26T14:34:21.088Z,102925.06
2023-02-26T14:37:14.723Z,102913.00
2023-02-26T14:40:16.007Z,102924.97
2023-02-26T14:43:05.169Z,102912.78
2023-02-26T14:45:51.296Z,102917.13
2023-02-26T14:48:39.262Z,102931.25
2023-02-26T14:51:30.732Z,102922.22
2023-02-26T14:55:08.195Z,102918.00
2023-02-26T14:58:00.574Z,102935.25
2023-02-26T15:00:55.133Z,102928.94
2023-02-26T15:04:05.013Z,102930.19
2023-02-26T15:07:09.781Z,102919.53
2023-02-26T15:10:14.211Z,102928.50
2023-02-26T15:13:18.177Z,102927.38
2023-02-26T15:16:19.914Z,102930.53
2023-02-26T15:19:40.539Z,102930.78
2023-02-26T15:22:32.346Z,102928.56
2023-02-26T15:25:28.161Z,102923.78
2023-02-26T15:28:41.194Z,102927.16
2023-02-26T15:31:51.143Z,102921.94
2023-02-26T15:34:37.985Z,102928.34
2023-02-26T15:37:26.382Z,102937.84
2023-02-26T15:40:15.290Z,102938.38
2023-02-26T15:43:02.239Z,102931.03
2023-02-26T15:45:49.591Z,102936.75
2023-02-26T15:48:42.219Z,102931.00
2023-02-26T15:51:28.745Z,102928.03
2023-02-26T15:54:20.954Z,102923.75
2023-02-26T15:57:06.683Z,102922.56
2023-02-26T15:59:55.105Z,102937.16
2023-02-26T16:02:41.517Z,102928.16
2023-02-26T16:05:28.912Z,102934.66
2023-02-26T16:08:18.464Z,102939.28
2023-02-26T16:11:03.943Z,102939.28
2023-02-26T16:13:53.625Z,102939.28
2023-02-26T16:16:49.530Z,102938.50
2023-02-26T16:19:46.223Z,102944.00
2023-02-26T16:22:42.002Z,102939.59
2023-02-26T16:25:35.318Z,102937.72
2023-02-26T16:28:24.179Z,102932.13
2023-02-26T16:31:17.672Z,102946.34
2023-02-26T16:34:26.100Z,102940.53
2023-02-26T16:37:26.269Z,102935.38
2023-02-26T16:40:11.781Z,102940.22
2023-02-26T16:43:03.427Z,102936.91
2023-02-26T16:45:54.295Z,102943.38
2023-02-26T16:48:53.441Z,102950.06
2023-02-26T16:51:41.144Z,102950.94
2023-02-26T16:54:28.859Z,102954.88
2023-02-26T16:57:22.295Z,102955.28
2023-02-26T17:00:17.751Z,102954.41
2023-02-26T17:03:14.047Z,102962.19
2023-02-26T17:06:03.567Z,102959.53
2023-02-26T17:08:56.783Z,102957.53
2023-02-26T17:11:45.804Z,102958.94
2023-02-26T17:14:38.811Z,102954.19
2023-02-26T17:17:25.640Z,102960.19
2023-02-26T17:20:12.118Z,102963.59
2023-02-26T17:22:59.585Z,102972.75
2023-02-26T17:25:47.480Z,102964.75
2023-02-26T17:28:36.733Z,102960.22
2023-02-26T17:31:22.507Z,102968.44
2023-02-26T17:34:11.407Z,102969.09
2023-02-26T17:36:57.474Z,102967.97
2023-02-26T17:39:44.239Z,102972.56
2023-02-26T17:42:29.887Z,102969.81
2023-02-26T17:45:15.991Z,102976.47
2023-02-26T17:48:01.673Z,102982.94
2023-02-26T17:50:50.857Z,102982.72
2023-02-26T17:53:41.002Z,102978.19
2023-02-26T17:56:30.224Z,102983.94
2023-02-26T17:59:15.897Z,102976.81
2023-02-26T18:02:01.433Z,102982.50
2023-02-26T18:04:46.742Z,102982.91
2023-02-26T18:07:32.224Z,102978.00
2023-02-26T18:10:23.216Z,102979.97
2023-02-26T18:13:11.306Z,102983.59
2023-02-26T18:15:58.353Z,102978.72
2023-02-26T18:18:44.251Z,102974.56
2023-02-26T18:21:31.284Z,102971.63
2023-02-26T18:24:16.813Z,102972.69
2023-02-26T18:27:02.375Z,102974.72
2023-02-26T18:29:47.833Z,102979.84
2023-02-26T18:32:33.750Z,102976.91
2023-02-26T18:35:19.359Z,102979.94
2023-02-26T18:38:04.782Z,102979.78
2023-02-26T18:40:50.529Z,102988.25
2023-02-26T18:43:36.092Z,102992.34
2023-02-26T18:46:21.659Z,102989.50
2023-02-26T18:49:13.045Z,102996.13
2023-02-26T18:51:59.198Z,102999.34
2023-02-26T18:54:45.296Z,103008.59
2023-02-26T18:57:30.926Z,103009.94
2023-02-26T19:00:16.760Z,103011.38
2023-02-26T19:03:02.132Z,103012.88
2023-02-26T19:05:56.375Z,103016.00
2023-02-26T19:08:41.817Z,103019.22
2023-02-26T19:11:27.391Z,103019.28
2023-02-26T19:14:13.390Z,103016.97
2023-02-26T19:16:58.927Z,103022.94
2023-02-26T19:19:44.090Z,103033.09
2023-02-26T19:22:29.569Z,103024.38
2023-02-26T19:25:15.178Z,103026.16
2023-02-26T19:28:00.690Z,103022.66
2023-02-26T19:30:46.429Z,103034.19
2023-02-26T19:33:31.790Z,103030.91
2023-02-26T19:36:21.905Z,103028.31
2023-02-26T19:39:07.309Z,103029.38
2023-02-26T19:41:55.433Z,103021.72
2023-02-26T19:44:41.175Z,103027.59
2023-02-26T19:47:26.682Z,103024.91
2023-02-26T19:50:14.326Z,103035.06
2023-02-26T19:53:00.656Z,103027.41
2023-02-26T19:55:46.256Z,103027.16
2023-02-26T19:58:33.185Z,103027.84
2023-02-26T20:01:18.608Z,103031.13
2023-02-26T20:04:04.710Z,103025.69
2023-02-26T20:06:50.687Z,103034.16
2023-02-26T20:09:36.225Z,103036.47
2023-02-26T20:12:21.941Z,103040.66
2023-02-26T20:15:08.744Z,103049.47
2023-02-26T20:17:54.027Z,103046.63
2023-02-26T20:20:39.513Z,103058.19
2023-02-26T20:23:24.770Z,103061.41
2023-02-26T20:26:13.685Z,103060.84
2023-02-26T20:28:59.336Z,103057.16
2023-02-26T20:31:49.581Z,103058.06
2023-02-26T20:34:35.217Z,103060.25
2023-02-26T20:37:20.818Z,103068.94
2023-02-26T20:40:07.592Z,103062.53
2023-02-26T20:42:53.115Z,103064.69
2023-02-26T20:45:39.341Z,103063.22
2023-02-26T20:48:25.400Z,103068.06
2023-02-26T20:51:12.226Z,103079.03
2023-02-26T20:53:57.693Z,103078.91
2023-02-26T20:56:42.968Z,103085.53
2023-02-26T20:59:28.321Z,103086.69
2023-02-26T21:02:15.662Z,103080.56
2023-02-26T21:05:01.044Z,103086.53
2023-02-26T21:07:46.671Z,103089.31
2023-02-26T21:10:32.899Z,103092.28
2023-02-26T21:13:18.746Z,103089.25
2023-02-26T21:16:04.375Z,103092.19
2023-02-26T21:18:49.969Z,103087.13
2023-02-26T21:21:35.884Z,103091.09
2023-02-26T21:24:21.222Z,103089.88
2023-02-26T21:27:06.816Z,103092.19
2023-02-26T21:29:52.440Z,103087.72
2023-02-26T21:32:39.048Z,103097.06
2023-02-26T21:35:24.881Z,103098.50
2023-02-26T21:38:10.843Z,103095.25
2023-02-26T21:40:56.047Z,103102.75
2023-02-26T21:43:41.469Z,103112.56
2023-02-26T21:46:26.749Z,103110.78
2023-02-26T21:49:12.252Z,103114.09
2023-02-26T21:51:59.095Z,103110.16
2023-02-26T21:54:44.673Z,103112.78
2023-02-26T21:57:30.715Z,103102.19
2023-02-26T22:00:17.960Z,103105.41
2023-02-26T22:03:03.801Z,103093.81
2023-02-26T22:05:53.064Z,103090.78
2023-02-26T22:08:38.674Z,103087.66
2023-02-26T22:11:23.946Z,103081.94
2023-02-26T22:14:09.326Z,103084.78
2023-02-26T22:16:54.806Z,103074.78
2023-02-26T22:19:40.884Z,103076.81
2023-02-26T22:22:27.094Z,103076.44
2023-02-26T22:25:12.909Z,103085.47
2023-02-26T22:27:58.702Z,103083.22
2023-02-26T22:30:44.399Z,103078.28
2023-02-26T22:33:29.609Z,103075.53
2023-02-26T22:36:14.904Z,103071.28
2023-02-26T22:39:00.398Z,103077.44
2023-02-26T22:41:47.389Z,103087.91
2023-02-26T22:44:33.064Z,103081.28
2023-02-26T22:47:18.467Z,103085.31
2023-02-26T22:50:04.802Z,103089.19
2023-02-26T22:52:50.114Z,103089.72
2023-02-26T22:55:35.502Z,103087.47
2023-02-26T22:58:20.780Z,103091.22
2023-02-26T23:01:08.082Z,103096.19
2023-02-26T23:03:53.541Z,103100.09
2023-02-26T23:06:38.828Z,103099.47
2023-02-26T23:09:24.295Z,103106.47
2023-02-26T23:12:10.805Z,103114.97
2023-02-26T23:14:56.356Z,103117.88
2023-02-26T23:17:42.270Z,103120.91
2023-02-26T23:20:27.839Z,103126.31
2023-02-26T23:23:14.362Z,103130.94
2023-02-26T23:26:00.128Z,103127.63
2023-02-26T23:28:45.523Z,103126.31
2023-02-26T23:31:31.374Z,103128.97
2023-02-26T23:34:17.487Z,103126.31
2023-02-26T23:37:03.084Z,103135.22
2023-02-26T23:39:49.364Z,103139.03
2023-02-26T23:42:34.610Z,103145.22
2023-02-26T23:45:19.967Z,103140.25
2023-02-26T23:48:05.584Z,103145.00
2023-02-26T23:50:51.687Z,103154.97
2023-02-26T23:53:37.052Z,103156.78
2023-02-26T23:56:22.409Z,103160.59
2023-02-26T23:59:07.974Z,103158.19
